createdAt,value
2018-10-19T00:00:53.352Z,16.37
2018-10-19T00:03:21.972Z,15.50
2018-10-19T00:05:50.584Z,17.40
2018-10-19T00:08:19.182Z,15.67
2018-10-19T00:10:47.783Z,17.77
2018-10-19T00:13:16.418Z,16.80
2018-10-19T00:15:45.003Z,16.40
2018-10-19T00:18:13.591Z,16.13
2018-10-19T00:20:42.176Z,15.40
2018-10-19T00:23:10.789Z,15.30
2018-10-19T00:25:39.372Z,15.60
2018-10-19T00:28:07.964Z,15.40
2018-10-19T00:30:36.581Z,16.20
2018-10-19T00:33:05.195Z,15.63
2018-10-19T00:35:33.763Z,16.20
2018-10-19T00:38:02.348Z,14.47
2018-10-19T00:40:30.974Z,14.37
2018-10-19T00:42:59.555Z,15.40
2018-10-19T00:45:33.632Z,15.37
2018-10-19T00:48:08.890Z,15.47
2018-10-19T00:50:37.479Z,14.00
2018-10-19T00:53:07.188Z,14.83
2018-10-19T00:55:35.971Z,15.10
2018-10-19T00:58:04.626Z,12.33
2018-10-19T01:00:33.315Z,13.53
2018-10-19T01:03:01.919Z,13.10
2018-10-19T01:05:30.504Z,13.10
2018-10-19T01:07:59.111Z,13.03
2018-10-19T01:10:27.708Z,13.63
2018-10-19T01:12:58.402Z,14.53
2018-10-19T01:15:28.250Z,13.27
2018-10-19T01:17:57.236Z,13.70
2018-10-19T01:20:25.840Z,12.63
2018-10-19T01:22:54.696Z,12.53
2018-10-19T01:25:23.318Z,11.50
2018-10-19T01:27:52.135Z,12.70
2018-10-19T01:30:20.791Z,12.43
2018-10-19T01:32:49.443Z,11.07
2018-10-19T01:35:18.040Z,12.77
2018-10-19T01:37:46.647Z,12.67
2018-10-19T01:40:15.231Z,12.20
2018-10-19T01:42:43.830Z,11.90
2018-10-19T01:45:13.160Z,12.40
2018-10-19T01:47:42.323Z,11.67
2018-10-19T01:50:11.551Z,12.30
2018-10-19T01:52:40.983Z,10.63
2018-10-19T01:55:09.600Z,11.77
2018-10-19T01:57:38.240Z,12.20
2018-10-19T02:00:07.271Z,11.23
2018-10-19T02:02:35.952Z,10.80
2018-10-19T02:05:04.613Z,12.63
2018-10-19T02:07:33.344Z,12.33
2018-10-19T02:10:01.899Z,12.07
2018-10-19T02:12:30.496Z,11.50
2018-10-19T02:14:59.125Z,11.87
2018-10-19T02:17:27.679Z,12.70
2018-10-19T02:19:56.263Z,12.70
2018-10-19T02:22:24.843Z,12.77
2018-10-19T02:24:53.448Z,12.07
2018-10-19T02:27:22.031Z,12.47
2018-10-19T02:29:50.643Z,12.07
2018-10-19T02:32:19.237Z,13.13
2018-10-19T02:34:47.812Z,13.13
2018-10-19T02:37:16.412Z,11.73
2018-10-19T02:39:44.996Z,12.80
2018-10-19T02:42:13.575Z,12.33
2018-10-19T02:44:42.160Z,12.43
2018-10-19T02:47:11.641Z,13.80
2018-10-19T02:49:40.194Z,12.77
2018-10-19T02:52:08.799Z,12.43
2018-10-19T02:54:37.395Z,12.90
2018-10-19T02:57:06.453Z,12.57
2018-10-19T02:59:35.031Z,12.80
2018-10-19T03:02:03.607Z,13.60
2018-10-19T03:04:32.212Z,12.00
2018-10-19T03:07:00.799Z,13.50
2018-10-19T03:09:29.400Z,13.87
2018-10-19T03:11:57.988Z,13.47
2018-10-19T03:14:26.597Z,12.83
2018-10-19T03:16:55.246Z,12.40
2018-10-19T03:19:23.776Z,13.47
2018-10-19T03:21:52.373Z,11.97
2018-10-19T03:24:20.960Z,14.33
2018-10-19T03:26:49.544Z,11.73
2018-10-19T03:29:18.297Z,12.40
2018-10-19T03:31:46.840Z,12.50
2018-10-19T03:34:15.364Z,14.33
2018-10-19T03:36:43.957Z,13.23
2018-10-19T03:39:12.574Z,14.43
2018-10-19T03:41:41.978Z,14.17
2018-10-19T03:44:10.562Z,13.60
2018-10-19T03:46:39.155Z,14.77
2018-10-19T03:49:07.742Z,14.30
2018-10-19T03:51:36.328Z,15.10
2018-10-19T03:54:05.370Z,15.40
2018-10-19T03:56:33.962Z,14.70
2018-10-19T03:59:02.597Z,15.60
2018-10-19T04:01:31.152Z,16.10
2018-10-19T04:03:59.750Z,15.10
2018-10-19T04:06:28.336Z,14.17
2018-10-19T04:08:56.976Z,15.77
2018-10-19T04:11:25.518Z,15.40
2018-10-19T04:13:54.115Z,15.20
2018-10-19T04:16:22.885Z,14.70
2018-10-19T04:18:51.489Z,15.30
2018-10-19T04:21:20.191Z,15.03
2018-10-19T04:23:48.691Z,15.10
2018-10-19T04:26:17.292Z,16.77
2018-10-19T04:28:45.908Z,16.40
2018-10-19T04:31:14.495Z,16.57
2018-10-19T04:33:43.098Z,16.07
2018-10-19T04:36:11.728Z,15.20
2018-10-19T04:38:40.336Z,15.93
2018-10-19T04:41:08.966Z,17.10
2018-10-19T04:43:37.552Z,16.13
2018-10-19T04:46:06.199Z,16.60
2018-10-19T04:48:34.820Z,16.43
2018-10-19T04:51:03.448Z,16.67
2018-10-19T04:53:32.059Z,17.00
2018-10-19T04:56:00.636Z,16.13
2018-10-19T04:58:29.268Z,18.63
2018-10-19T05:00:57.863Z,17.90
2018-10-19T05:03:26.487Z,18.50
2018-10-19T05:05:55.149Z,20.20
2018-10-19T05:08:23.805Z,20.33
2018-10-19T05:10:52.360Z,19.53
2018-10-19T05:13:20.911Z,21.10
2018-10-19T05:15:49.503Z,21.00
2018-10-19T05:18:18.107Z,18.80
2018-10-19T05:20:46.702Z,19.50
2018-10-19T05:23:15.357Z,20.60
2018-10-19T05:25:43.887Z,22.17
2018-10-19T05:28:12.472Z,20.90
2018-10-19T05:30:41.075Z,22.37
2018-10-19T05:33:09.687Z,23.13
2018-10-19T05:35:38.283Z,22.63
2018-10-19T05:38:07.107Z,23.60
2018-10-19T05:40:35.644Z,21.20
2018-10-19T05:43:04.440Z,22.23
2018-10-19T05:45:33.039Z,21.63
2018-10-19T05:48:01.624Z,21.80
2018-10-19T05:50:30.225Z,22.27
2018-10-19T05:52:58.987Z,21.50
2018-10-19T05:55:27.532Z,21.60
2018-10-19T05:57:56.123Z,21.70
2018-10-19T06:00:24.727Z,22.83
2018-10-19T06:02:53.320Z,22.10
2018-10-19T06:05:21.903Z,22.73
2018-10-19T06:07:50.496Z,21.87
2018-10-19T06:10:19.093Z,20.27
2018-10-19T06:12:47.687Z,22.37
2018-10-19T06:15:16.279Z,21.70
2018-10-19T06:17:44.881Z,21.37
2018-10-19T06:20:13.543Z,21.30
2018-10-19T06:22:42.064Z,20.27
2018-10-19T06:25:10.667Z,21.47
2018-10-19T06:27:39.263Z,21.70
2018-10-19T06:30:08.251Z,21.20
2018-10-19T06:32:37.055Z,21.03
2018-10-19T06:35:05.833Z,21.07
2018-10-19T06:37:34.367Z,19.83
2018-10-19T06:40:02.947Z,20.57
2018-10-19T06:42:31.562Z,20.73
2018-10-19T06:45:00.868Z,20.17
2018-10-19T06:47:29.429Z,21.60
2018-10-19T06:49:58.057Z,21.07
2018-10-19T06:52:26.648Z,20.33
2018-10-19T06:54:57.305Z,19.53
2018-10-19T06:57:28.490Z,20.97
2018-10-19T06:59:57.036Z,20.20
2018-10-19T07:02:25.759Z,20.73
2018-10-19T07:04:54.405Z,19.67
2018-10-19T07:07:23.088Z,20.07
2018-10-19T07:09:51.983Z,19.40
2018-10-19T07:12:21.108Z,19.83
2018-10-19T07:14:49.826Z,21.10
2018-10-19T07:17:18.409Z,19.37
2018-10-19T07:19:48.172Z,19.30
2018-10-19T07:22:16.767Z,19.40
2018-10-19T07:24:45.368Z,19.90
2018-10-19T07:27:16.742Z,18.13
2018-10-19T07:29:45.340Z,20.33
2018-10-19T07:32:14.090Z,20.20
2018-10-19T07:34:42.524Z,20.90
2018-10-19T07:37:11.120Z,17.43
2018-10-19T07:39:39.728Z,19.00
2018-10-19T07:42:08.340Z,19.87
2018-10-19T07:44:36.988Z,18.40
2018-10-19T07:47:05.838Z,19.40
2018-10-19T07:49:34.415Z,19.30
2018-10-19T07:52:03.086Z,18.37
2018-10-19T07:54:31.722Z,18.80
2018-10-19T07:57:00.231Z,20.87
2018-10-19T07:59:28.839Z,19.07
2018-10-19T08:01:57.452Z,20.57
2018-10-19T08:04:26.029Z,19.00
2018-10-19T08:06:54.619Z,19.50
2018-10-19T08:09:23.219Z,21.00
2018-10-19T08:11:51.808Z,20.03
2018-10-19T08:14:20.420Z,20.30
2018-10-19T08:16:49.009Z,18.80
2018-10-19T08:19:17.591Z,20.13
2018-10-19T08:21:46.192Z,18.40
2018-10-19T08:24:14.784Z,22.17
2018-10-19T08:26:43.363Z,20.73
2018-10-19T08:29:11.992Z,21.67
2018-10-19T08:31:40.555Z,19.83
2018-10-19T08:34:09.156Z,21.13
2018-10-19T08:36:37.797Z,18.87
2018-10-19T08:39:07.293Z,20.40
2018-10-19T08:41:35.952Z,19.37
2018-10-19T08:44:04.508Z,19.47
2018-10-19T08:46:37.796Z,18.37
2018-10-19T08:49:07.894Z,21.53
2018-10-19T08:51:36.473Z,21.67
2018-10-19T08:54:05.159Z,20.90
2018-10-19T08:56:33.799Z,21.67
2018-10-19T08:59:02.486Z,22.83
2018-10-19T09:01:31.007Z,21.10
2018-10-19T09:03:59.643Z,22.73
2018-10-19T09:06:28.201Z,22.27
2018-10-19T09:08:56.832Z,23.27
2018-10-19T09:11:25.558Z,24.40
2018-10-19T09:13:54.112Z,23.60
2018-10-19T09:16:22.715Z,24.40
2018-10-19T09:18:51.319Z,23.37
2018-10-19T09:21:19.913Z,26.23
2018-10-19T09:23:48.503Z,24.83
2018-10-19T09:26:17.099Z,24.90
2018-10-19T09:28:45.711Z,26.23
2018-10-19T09:31:14.295Z,25.73
2018-10-19T09:33:42.887Z,24.00
2018-10-19T09:36:11.586Z,25.50
2018-10-19T09:38:40.068Z,27.40
2018-10-19T09:41:08.824Z,26.30
2018-10-19T09:43:37.275Z,25.47
2018-10-19T09:46:05.832Z,25.00
2018-10-19T09:48:34.422Z,26.43
2018-10-19T09:51:03.031Z,24.60
2018-10-19T09:53:31.619Z,26.20
2018-10-19T09:56:00.237Z,26.03
2018-10-19T09:58:28.808Z,26.87
2018-10-19T10:00:58.072Z,28.33
2018-10-19T10:03:27.070Z,28.90
2018-10-19T10:05:55.863Z,27.60
2018-10-19T10:08:24.816Z,29.40
2018-10-19T10:10:53.717Z,29.30
2018-10-19T10:13:22.288Z,30.00
2018-10-19T10:15:50.985Z,30.93
2018-10-19T10:18:19.536Z,31.10
2018-10-19T10:20:48.158Z,31.27
2018-10-19T10:23:16.748Z,33.93
2018-10-19T10:25:45.379Z,33.90
2018-10-19T10:28:14.025Z,35.97
2018-10-19T10:30:42.566Z,36.13
2018-10-19T10:33:11.275Z,35.07
2018-10-19T10:35:39.864Z,35.23
2018-10-19T10:38:08.463Z,33.90
2018-10-19T10:40:37.056Z,33.97
2018-10-19T10:43:05.656Z,35.63
2018-10-19T10:45:34.248Z,35.90
2018-10-19T10:48:02.863Z,38.90
2018-10-19T10:50:31.542Z,36.97
2018-10-19T10:53:00.144Z,37.87
2018-10-19T10:55:28.732Z,36.57
2018-10-19T10:57:57.368Z,39.93
2018-10-19T11:00:25.915Z,38.80
2018-10-19T11:02:54.517Z,36.77
2018-10-19T11:05:23.111Z,36.97
2018-10-19T11:07:51.687Z,37.00
2018-10-19T11:10:20.322Z,36.70
2018-10-19T11:12:49.111Z,40.00
2018-10-19T11:15:17.728Z,41.50
2018-10-19T11:17:46.375Z,38.37
2018-10-19T11:20:14.990Z,38.07
2018-10-19T11:22:43.597Z,38.77
2018-10-19T11:25:12.262Z,35.27
2018-10-19T11:27:40.823Z,35.43
2018-10-19T11:30:09.609Z,32.50
2018-10-19T11:32:38.240Z,31.87
2018-10-19T11:35:07.212Z,30.07
2018-10-19T11:37:36.815Z,31.67
2018-10-19T11:40:39.315Z,29.30
2018-10-19T11:43:08.008Z,27.23
2018-10-19T11:45:37.762Z,28.50
2018-10-19T11:48:06.371Z,28.00
2018-10-19T11:50:34.975Z,28.00
2018-10-19T11:53:03.619Z,27.20
2018-10-19T11:55:32.228Z,26.97
2018-10-19T11:58:00.863Z,26.47
2018-10-19T12:00:29.419Z,26.13
2018-10-19T12:02:58.011Z,26.67
2018-10-19T12:05:26.620Z,27.73
2018-10-19T12:07:55.211Z,27.77
2018-10-19T12:10:23.816Z,26.45
2018-10-19T12:12:52.425Z,27.13
2018-10-19T12:15:21.027Z,26.90
2018-10-19T12:17:49.623Z,28.30
2018-10-19T12:20:18.963Z,27.70
2018-10-19T12:22:47.555Z,25.77
2018-10-19T12:25:16.825Z,24.82
2018-10-19T12:27:45.428Z,26.42
2018-10-19T12:30:14.136Z,26.93
2018-10-19T12:32:42.746Z,26.33
2018-10-19T12:35:12.863Z,25.82
2018-10-19T12:37:41.460Z,26.27
2018-10-19T12:40:10.877Z,26.30
2018-10-19T12:42:39.679Z,25.72
2018-10-19T12:45:19.844Z,27.17
2018-10-19T12:47:48.459Z,27.37
2018-10-19T12:50:17.053Z,28.05
2018-10-19T12:52:45.658Z,28.00
2018-10-19T12:55:14.316Z,27.50
2018-10-19T12:57:42.889Z,26.20
2018-10-19T13:00:11.450Z,25.77
2018-10-19T13:02:40.051Z,26.33
2018-10-19T13:05:08.643Z,23.75
2018-10-19T13:07:37.239Z,23.42
2018-10-19T13:10:05.945Z,22.15
2018-10-19T13:12:34.544Z,24.57
2018-10-19T13:15:03.207Z,21.30
2018-10-19T13:17:31.772Z,22.50
2018-10-19T13:20:00.406Z,21.97
2018-10-19T13:22:28.987Z,21.50
2018-10-19T13:24:57.595Z,22.05
2018-10-19T13:27:26.209Z,19.80
2018-10-19T13:29:54.821Z,20.25
2018-10-19T13:32:23.427Z,19.80
2018-10-19T13:34:52.085Z,19.73
2018-10-19T13:37:20.715Z,19.60
2018-10-19T13:39:49.339Z,20.50
2018-10-19T13:42:17.948Z,18.23
2018-10-19T13:44:46.552Z,19.40
2018-10-19T13:47:15.187Z,17.87
2018-10-19T13:49:43.744Z,17.67
2018-10-19T13:52:12.404Z,18.62
2018-10-19T13:54:40.976Z,19.00
2018-10-19T13:57:09.652Z,17.77
2018-10-19T13:59:38.198Z,15.88
2018-10-19T14:02:37.738Z,17.02
2018-10-19T14:05:06.517Z,17.82
2018-10-19T14:07:35.106Z,17.80
2018-10-19T14:10:03.784Z,16.63
2018-10-19T14:12:32.407Z,17.10
2018-10-19T14:15:01.086Z,16.00
2018-10-19T14:17:29.707Z,16.60
2018-10-19T14:19:58.648Z,16.37
2018-10-19T14:22:27.231Z,16.00
2018-10-19T14:24:55.823Z,15.03
2018-10-19T14:27:24.415Z,14.30
2018-10-19T14:29:53.012Z,16.30
2018-10-19T14:32:21.640Z,16.23
2018-10-19T14:34:50.240Z,15.23
2018-10-19T14:37:18.831Z,14.13
2018-10-19T14:39:47.420Z,15.70
2018-10-19T14:42:16.023Z,16.20
2018-10-19T14:44:44.607Z,14.27
2018-10-19T14:47:13.390Z,15.07
2018-10-19T14:49:41.840Z,14.47
2018-10-19T14:52:10.427Z,14.73
2018-10-19T14:54:39.075Z,14.33
2018-10-19T14:57:07.682Z,14.60
2018-10-19T14:59:36.207Z,14.57
2018-10-19T15:02:04.904Z,13.83
2018-10-19T15:04:33.562Z,13.80
2018-10-19T15:07:02.191Z,14.83
2018-10-19T15:09:30.858Z,13.60
2018-10-19T15:11:59.434Z,13.47
2018-10-19T15:14:28.015Z,14.27
2018-10-19T15:16:56.619Z,14.03
2018-10-19T15:19:25.227Z,14.37
2018-10-19T15:21:53.842Z,13.70
2018-10-19T15:24:22.443Z,14.53
2018-10-19T15:26:51.040Z,12.97
2018-10-19T15:29:19.673Z,13.53
2018-10-19T15:31:48.316Z,14.00
2018-10-19T15:34:16.916Z,14.07
2018-10-19T15:36:45.555Z,13.90
2018-10-19T15:39:14.277Z,12.63
2018-10-19T15:41:42.755Z,12.10
2018-10-19T15:44:11.620Z,13.30
2018-10-19T15:46:40.327Z,13.37
2018-10-19T15:49:08.843Z,13.90
2018-10-19T15:51:37.463Z,13.53
2018-10-19T15:54:06.082Z,12.23
2018-10-19T15:56:34.650Z,11.33
2018-10-19T15:59:03.246Z,12.30
2018-10-19T16:01:31.848Z,10.80
2018-10-19T16:04:00.447Z,11.30
2018-10-19T16:06:29.063Z,10.10
2018-10-19T16:08:57.764Z,10.37
2018-10-19T16:11:26.315Z,7.90
2018-10-19T16:13:54.920Z,8.07
2018-10-19T16:16:23.525Z,8.37
2018-10-19T16:18:52.127Z,8.83
2018-10-19T16:21:20.738Z,7.23
2018-10-19T16:23:49.340Z,7.27
2018-10-19T16:26:17.940Z,6.87
2018-10-19T16:28:46.544Z,7.60
2018-10-19T16:31:15.148Z,7.57
2018-10-19T16:33:43.760Z,7.93
2018-10-19T16:36:12.395Z,8.23
2018-10-19T16:38:40.964Z,7.17
2018-10-19T16:41:09.564Z,6.20
2018-10-19T16:43:38.163Z,7.30
2018-10-19T16:46:06.814Z,7.00
2018-10-19T16:48:35.447Z,6.00
2018-10-19T16:51:04.082Z,6.73
2018-10-19T16:53:32.660Z,6.90
2018-10-19T16:56:01.243Z,6.80
2018-10-19T16:58:29.843Z,6.80
2018-10-19T17:00:58.446Z,6.77
2018-10-19T17:03:27.128Z,7.50
2018-10-19T17:05:55.713Z,7.30
2018-10-19T17:08:24.309Z,8.10
2018-10-19T17:10:52.930Z,7.00
2018-10-19T17:13:21.532Z,7.47
2018-10-19T17:15:50.136Z,7.60
2018-10-19T17:18:18.772Z,8.00
2018-10-19T17:20:47.403Z,8.27
2018-10-19T17:23:15.985Z,8.53
2018-10-19T17:25:44.583Z,7.63
2018-10-19T17:28:13.175Z,8.50
2018-10-19T17:30:41.856Z,7.57
2018-10-19T17:33:10.425Z,8.17
2018-10-19T17:35:38.951Z,8.10
2018-10-19T17:38:07.528Z,8.00
2018-10-19T17:40:36.115Z,7.47
2018-10-19T17:43:05.315Z,7.43
2018-10-19T17:45:33.879Z,8.43
2018-10-19T17:48:02.478Z,8.40
2018-10-19T17:50:31.064Z,8.40
2018-10-19T17:52:59.682Z,9.07
2018-10-19T17:55:28.255Z,7.83
2018-10-19T17:57:56.843Z,8.37
2018-10-19T18:00:25.447Z,9.70
2018-10-19T18:02:54.087Z,9.30
2018-10-19T18:05:22.626Z,9.10
2018-10-19T18:07:51.203Z,9.00
2018-10-19T18:10:19.803Z,9.73
2018-10-19T18:12:48.445Z,9.77
2018-10-19T18:15:17.097Z,9.10
2018-10-19T18:17:45.642Z,10.10
2018-10-19T18:20:14.223Z,9.87
2018-10-19T18:22:42.902Z,11.23
2018-10-19T18:25:11.419Z,10.50
2018-10-19T18:27:40.031Z,9.53
2018-10-19T18:30:08.850Z,9.37
2018-10-19T18:32:38.208Z,11.37
2018-10-19T18:35:08.413Z,10.33
2018-10-19T18:37:37.044Z,9.50
2018-10-19T18:40:07.032Z,10.20
2018-10-19T18:42:35.710Z,10.10
2018-10-19T18:45:04.367Z,9.23
2018-10-19T18:47:32.947Z,11.23
2018-10-19T18:50:01.653Z,10.63
2018-10-19T18:52:30.159Z,9.40
2018-10-19T18:54:58.776Z,9.87
2018-10-19T18:57:27.339Z,10.93
2018-10-19T18:59:55.982Z,10.13
2018-10-19T19:02:24.840Z,10.50
2018-10-19T19:04:53.510Z,11.20
2018-10-19T19:07:22.047Z,10.40
2018-10-19T19:09:55.993Z,11.43
2018-10-19T19:12:24.578Z,10.50
2018-10-19T19:14:53.201Z,11.07
2018-10-19T19:17:21.781Z,11.07
2018-10-19T19:19:55.788Z,11.20
2018-10-19T19:22:24.396Z,10.70
2018-10-19T19:24:58.431Z,10.70
2018-10-19T19:27:27.032Z,11.23
2018-10-19T19:29:55.655Z,9.77
2018-10-19T19:32:24.251Z,8.60
2018-10-19T19:34:52.865Z,11.40
2018-10-19T19:37:21.478Z,10.63
2018-10-19T19:39:50.093Z,10.07
2018-10-19T19:42:24.088Z,11.87
2018-10-19T19:44:52.744Z,10.70
2018-10-19T19:47:26.568Z,11.30
2018-10-19T19:49:59.457Z,10.67
2018-10-19T19:52:28.035Z,11.13
2018-10-19T19:54:56.670Z,10.60
2018-10-19T19:57:25.292Z,10.83
2018-10-19T19:59:54.152Z,9.27
2018-10-19T20:02:22.747Z,8.70
2018-10-19T20:04:51.347Z,9.00
2018-10-19T20:07:19.940Z,10.30
2018-10-19T20:09:48.542Z,10.10
2018-10-19T20:12:17.204Z,9.80
2018-10-19T20:14:45.781Z,9.80
2018-10-19T20:17:14.447Z,9.73
2018-10-19T20:19:42.955Z,10.47
2018-10-19T20:22:11.547Z,10.60
2018-10-19T20:24:40.159Z,10.57
2018-10-19T20:27:08.763Z,10.07
2018-10-19T20:29:37.355Z,10.30
2018-10-19T20:32:05.985Z,9.90
2018-10-19T20:34:34.519Z,9.70
2018-10-19T20:37:03.113Z,10.10
2018-10-19T20:39:31.704Z,11.30
2018-10-19T20:42:00.301Z,10.40
2018-10-19T20:44:28.935Z,12.00
2018-10-19T20:46:57.574Z,11.10
2018-10-19T20:49:26.140Z,11.20
2018-10-19T20:51:54.744Z,12.43
2018-10-19T20:54:23.340Z,11.40
2018-10-19T20:56:51.930Z,9.80
2018-10-19T20:59:20.515Z,11.40
2018-10-19T21:01:49.119Z,11.80
2018-10-19T21:04:17.704Z,11.40
2018-10-19T21:06:46.311Z,11.57
2018-10-19T21:09:14.917Z,11.53
2018-10-19T21:11:43.509Z,11.63
2018-10-19T21:14:12.293Z,10.90
2018-10-19T21:16:40.700Z,11.23
2018-10-19T21:19:09.414Z,12.20
2018-10-19T21:21:37.909Z,11.07
2018-10-19T21:24:06.532Z,13.20
2018-10-19T21:26:35.139Z,11.80
2018-10-19T21:29:03.746Z,12.47
2018-10-19T21:31:32.358Z,11.73
2018-10-19T21:34:00.948Z,11.43
2018-10-19T21:36:29.551Z,13.47
2018-10-19T21:38:58.159Z,12.00
2018-10-19T21:41:26.771Z,13.70
2018-10-19T21:43:55.375Z,12.57
2018-10-19T21:46:23.983Z,11.67
2018-10-19T21:48:52.588Z,13.37
2018-10-19T21:51:21.183Z,12.40
2018-10-19T21:53:49.791Z,13.17
2018-10-19T21:56:18.392Z,13.53
2018-10-19T21:58:47.062Z,14.53
2018-10-19T22:01:15.616Z,13.80
2018-10-19T22:03:44.244Z,13.60
2018-10-19T22:06:12.851Z,14.03
2018-10-19T22:08:41.557Z,13.70
2018-10-19T22:11:10.165Z,15.07
2018-10-19T22:13:38.711Z,14.43
2018-10-19T22:16:07.855Z,15.37
2018-10-19T22:18:36.459Z,14.13
2018-10-19T22:21:05.059Z,14.07
2018-10-19T22:23:33.740Z,15.70
2018-10-19T22:26:02.247Z,15.03
2018-10-19T22:28:30.846Z,15.33
2018-10-19T22:30:59.469Z,14.03
2018-10-19T22:33:28.053Z,13.77
2018-10-19T22:35:56.649Z,14.90
2018-10-19T22:38:25.252Z,14.00
2018-10-19T22:40:53.868Z,14.57
2018-10-19T22:43:22.432Z,15.10
2018-10-19T22:45:51.047Z,14.93
2018-10-19T22:48:19.650Z,14.20
2018-10-19T22:50:48.340Z,14.90
2018-10-19T22:53:16.947Z,14.50
2018-10-19T22:55:45.669Z,14.80
2018-10-19T22:58:14.260Z,15.23
2018-10-19T23:00:42.866Z,14.60
2018-10-19T23:03:11.464Z,16.13
2018-10-19T23:05:40.071Z,14.17
2018-10-19T23:08:08.668Z,16.00
2018-10-19T23:10:37.276Z,15.53
2018-10-19T23:13:05.881Z,14.40
2018-10-19T23:15:34.471Z,16.53
2018-10-19T23:18:03.297Z,15.97
2018-10-19T23:20:31.918Z,16.63
2018-10-19T23:23:00.523Z,17.50
2018-10-19T23:25:29.096Z,15.17
2018-10-19T23:27:57.675Z,16.67
2018-10-19T23:30:26.349Z,17.17
2018-10-19T23:32:54.915Z,15.83
2018-10-19T23:35:23.492Z,15.77
2018-10-19T23:37:52.078Z,16.70
2018-10-19T23:40:20.667Z,16.13
2018-10-19T23:42:49.334Z,15.83
2018-10-19T23:45:17.882Z,17.13
2018-10-19T23:47:46.466Z,15.47
2018-10-19T23:50:15.057Z,15.70
2018-10-19T23:52:43.653Z,16.37
2018-10-19T23:55:12.295Z,17.60
2018-10-19T23:57:40.831Z,15.40
